Time;durP1;ratioP1;P1;durP2;ratioP2;P2;SDS_P1;SDS_P2;PMS_P1;PMS_P2;Temp;Humidity;BMP_temperature;BMP_pressure;BME280_temperature;BME280_humidity;BME280_pressure;Samples;Min_cycle;Max_cycle;Signal;HPM_P1;HPM_P2
2023/05/04 00:01:36;;;;;;;26.83;19.37;;;;;;;;;;5095309;28;20461;-71
2023/05/04 00:04:03;;;;;;;25.87;18.20;;;;;;;;;;5094859;28;20569;-71
2023/05/04 00:06:30;;;;;;;32.73;19.80;;;;;;;;;;5095061;28;20451;-71
2023/05/04 00:08:58;;;;;;;32.00;20.40;;;;;;;;;;5095067;28;20455;-71
2023/05/04 00:11:25;;;;;;;34.30;19.80;;;;;;;;;;5095028;28;20447;-72
2023/05/04 00:13:52;;;;;;;29.47;17.70;;;;;;;;;;5094696;28;20547;-71
2023/05/04 00:16:20;;;;;;;28.33;19.50;;;;;;;;;;5094922;28;20447;-72
2023/05/04 00:18:47;;;;;;;27.60;19.93;;;;;;;;;;5094945;28;20454;-71
2023/05/04 00:21:15;;;;;;;25.07;18.10;;;;;;;;;;5094969;28;20450;-71
2023/05/04 00:23:42;;;;;;;31.50;19.57;;;;;;;;;;5094096;28;20839;-71
2023/05/04 00:26:09;;;;;;;30.50;19.20;;;;;;;;;;5094892;28;20455;-71
2023/05/04 00:28:36;;;;;;;32.73;19.03;;;;;;;;;;5094702;28;20455;-71
2023/05/04 00:31:03;;;;;;;26.23;18.73;;;;;;;;;;5094882;28;20459;-72
2023/05/04 00:33:31;;;;;;;26.10;18.63;;;;;;;;;;5094265;28;20549;-71
2023/05/04 00:35:58;;;;;;;26.73;19.30;;;;;;;;;;5094705;28;20948;-71
2023/05/04 00:38:25;;;;;;;31.20;20.20;;;;;;;;;;5094424;28;20863;-72
2023/05/04 00:40:52;;;;;;;29.33;20.20;;;;;;;;;;5094609;28;20939;-72
2023/05/04 00:43:20;;;;;;;29.70;20.20;;;;;;;;;;5094411;28;20474;-72
2023/05/04 00:45:47;;;;;;;29.50;19.83;;;;;;;;;;5094226;28;20462;-72
2023/05/04 00:48:14;;;;;;;26.17;19.43;;;;;;;;;;5094372;28;20446;-72
2023/05/04 00:50:43;;;;;;;30.00;20.10;;;;;;;;;;5093994;28;20508;-72
2023/05/04 00:53:11;;;;;;;31.17;21.23;;;;;;;;;;5094198;28;20907;-72
2023/05/04 00:55:39;;;;;;;29.10;20.90;;;;;;;;;;5094007;28;20482;-71
2023/05/04 00:58:07;;;;;;;33.93;19.73;;;;;;;;;;5094280;28;20459;-71
2023/05/04 01:00:35;;;;;;;31.27;19.33;;;;;;;;;;5093967;28;20451;-71
2023/05/04 01:03:02;;;;;;;31.53;21.33;;;;;;;;;;5094067;28;20471;-71
2023/05/04 01:05:31;;;;;;;28.30;18.37;;;;;;;;;;5093808;28;20453;-71
2023/05/04 01:08:02;;;;;;;26.87;18.70;;;;;;;;;;5094011;28;20454;-71
2023/05/04 01:10:34;;;;;;;32.63;21.37;;;;;;;;;;5093974;28;20854;-71
2023/05/04 01:13:03;;;;;;;29.33;18.13;;;;;;;;;;5094247;28;20490;-72
2023/05/04 01:15:30;;;;;;;29.83;18.47;;;;;;;;;;5093628;28;20454;-71
2023/05/04 01:17:57;;;;;;;24.97;17.50;;;;;;;;;;5093830;28;20442;-71
2023/05/04 01:20:24;;;;;;;26.40;18.60;;;;;;;;;;5093719;28;20873;-71
2023/05/04 01:22:55;;;;;;;27.30;20.03;;;;;;;;;;5093408;28;20505;-71
2023/05/04 01:25:22;;;;;;;29.93;19.40;;;;;;;;;;5093521;28;20466;-71
2023/05/04 01:27:52;;;;;;;35.07;20.33;;;;;;;;;;5093752;28;20450;-71
2023/05/04 01:30:24;;;;;;;27.20;19.43;;;;;;;;;;5093643;28;20447;-71
2023/05/04 01:32:51;;;;;;;28.43;18.67;;;;;;;;;;5093532;28;20471;-71
2023/05/04 01:35:18;;;;;;;29.90;16.33;;;;;;;;;;5093197;28;20466;-71
2023/05/04 01:37:46;;;;;;;24.33;17.40;;;;;;;;;;5093588;28;20936;-71
2023/05/04 01:40:14;;;;;;;28.13;18.90;;;;;;;;;;5093425;28;20462;-71
2023/05/04 01:42:41;;;;;;;26.10;17.30;;;;;;;;;;5093459;28;20827;-71
2023/05/04 01:45:09;;;;;;;25.23;17.80;;;;;;;;;;5093040;28;20512;-71
2023/05/04 01:47:36;;;;;;;27.87;18.27;;;;;;;;;;5093276;28;20457;-71
2023/05/04 01:50:04;;;;;;;26.20;17.77;;;;;;;;;;5093345;28;20446;-71
2023/05/04 01:52:31;;;;;;;30.27;17.47;;;;;;;;;;5093101;28;20474;-71
2023/05/04 01:54:58;;;;;;;29.10;18.33;;;;;;;;;;5093052;28;20486;-71
2023/05/04 01:57:26;;;;;;;27.37;17.20;;;;;;;;;;5093133;28;20450;-71
2023/05/04 01:59:53;;;;;;;29.70;18.50;;;;;;;;;;5093143;28;20496;-71
2023/05/04 02:02:21;;;;;;;35.47;18.50;;;;;;;;;;5092531;28;20873;-71
2023/05/04 02:04:48;;;;;;;23.23;16.93;;;;;;;;;;5092766;28;20829;-71
2023/05/04 02:07:15;;;;;;;24.73;17.27;;;;;;;;;;5092864;28;20867;-71
2023/05/04 02:09:42;;;;;;;23.97;16.87;;;;;;;;;;5093076;28;20451;-71
2023/05/04 02:12:09;;;;;;;23.77;16.00;;;;;;;;;;5093081;28;20466;-71
2023/05/04 02:14:37;;;;;;;28.43;18.40;;;;;;;;;;5092504;28;20494;-71
2023/05/04 02:17:04;;;;;;;26.13;17.83;;;;;;;;;;5092924;28;20451;-71
2023/05/04 02:19:31;;;;;;;25.20;16.67;;;;;;;;;;5092870;28;20459;-71
2023/05/04 02:21:59;;;;;;;29.43;18.80;;;;;;;;;;5092478;28;20474;-71
2023/05/04 02:24:26;;;;;;;21.80;14.93;;;;;;;;;;5092621;28;20455;-71
2023/05/04 02:26:53;;;;;;;27.83;17.13;;;;;;;;;;5092792;28;20537;-71
2023/05/04 02:29:20;;;;;;;19.67;14.83;;;;;;;;;;5092696;28;20548;-71
2023/05/04 02:31:48;;;;;;;23.23;16.10;;;;;;;;;;5092899;28;20465;-71
2023/05/04 02:34:16;;;;;;;21.50;14.13;;;;;;;;;;5092436;28;20544;-71
2023/05/04 02:36:43;;;;;;;28.63;16.77;;;;;;;;;;5092698;28;20458;-72
2023/05/04 02:39:10;;;;;;;22.27;14.40;;;;;;;;;;5092737;28;20450;-72
2023/05/04 02:41:37;;;;;;;19.97;15.07;;;;;;;;;;5092570;28;20447;-72
2023/05/04 02:44:04;;;;;;;24.33;15.67;;;;;;;;;;5092639;28;20455;-71
2023/05/04 02:46:31;;;;;;;20.37;13.30;;;;;;;;;;5092534;28;20471;-71
2023/05/04 02:48:59;;;;;;;29.20;16.57;;;;;;;;;;5092543;28;20454;-71
2023/05/04 02:51:26;;;;;;;25.00;15.30;;;;;;;;;;5092470;28;20446;-71
2023/05/04 02:53:54;;;;;;;26.53;15.70;;;;;;;;;;5092097;28;20494;-71
2023/05/04 02:56:21;;;;;;;26.60;16.20;;;;;;;;;;5092593;28;20970;-71
2023/05/04 02:58:48;;;;;;;23.27;16.60;;;;;;;;;;5092643;28;20447;-71
2023/05/04 03:01:15;;;;;;;26.67;16.53;;;;;;;;;;5092373;28;20465;-71
2023/05/04 03:03:42;;;;;;;27.63;14.80;;;;;;;;;;5092204;28;20470;-71
2023/05/04 03:06:11;;;;;;;22.77;15.07;;;;;;;;;;5092828;28;20462;-71
2023/05/04 03:08:38;;;;;;;30.63;15.57;;;;;;;;;;5092347;28;20453;-71
2023/05/04 03:11:05;;;;;;;24.97;16.37;;;;;;;;;;5092495;28;20478;-71
2023/05/04 03:13:32;;;;;;;28.27;15.90;;;;;;;;;;5092054;28;20467;-71
2023/05/04 03:15:59;;;;;;;23.30;16.00;;;;;;;;;;5095892;28;20936;-71
2023/05/04 03:18:26;;;;;;;20.80;14.87;;;;;;;;;;5096036;28;20457;-71
2023/05/04 03:20:53;;;;;;;24.57;17.13;;;;;;;;;;5096243;28;20446;-71
2023/05/04 03:23:21;;;;;;;20.73;15.13;;;;;;;;;;5095485;28;20846;-71
2023/05/04 03:25:48;;;;;;;29.43;14.67;;;;;;;;;;5096014;28;20450;-71
2023/05/04 03:28:16;;;;;;;25.60;15.70;;;;;;;;;;5095943;28;20446;-71
2023/05/04 03:30:43;;;;;;;23.57;14.83;;;;;;;;;;5096002;28;20450;-71
2023/05/04 03:33:10;;;;;;;21.37;14.83;;;;;;;;;;5095979;28;20478;-71
2023/05/04 03:35:37;;;;;;;30.73;15.70;;;;;;;;;;5095492;28;20498;-71
2023/05/04 03:38:05;;;;;;;29.20;15.23;;;;;;;;;;5095832;28;20512;-71
2023/05/04 03:40:33;;;;;;;24.70;17.30;;;;;;;;;;5095665;28;20465;-71
2023/05/04 03:43:00;;;;;;;20.87;13.77;;;;;;;;;;5095485;28;20478;-71
2023/05/04 03:45:28;;;;;;;23.40;15.17;;;;;;;;;;5095151;28;20458;-71
2023/05/04 03:47:55;;;;;;;26.37;14.17;;;;;;;;;;5095724;28;20450;-71
2023/05/04 03:50:22;;;;;;;25.77;13.87;;;;;;;;;;5095396;28;20462;-71
2023/05/04 03:52:50;;;;;;;21.90;14.43;;;;;;;;;;5095414;28;20477;-71
2023/05/04 03:55:18;;;;;;;26.30;16.33;;;;;;;;;;5095249;28;20860;-71
2023/05/04 03:57:46;;;;;;;20.43;14.40;;;;;;;;;;5095381;28;20476;-71
2023/05/04 04:00:14;;;;;;;24.43;15.00;;;;;;;;;;5095376;28;20935;-71
2023/05/04 04:02:41;;;;;;;22.37;13.73;;;;;;;;;;5095193;28;20975;-71
2023/05/04 04:05:09;;;;;;;23.03;13.70;;;;;;;;;;5095106;28;20868;-71
2023/05/04 04:07:36;;;;;;;15.83;11.77;;;;;;;;;;5095211;28;20901;-71
2023/05/04 04:10:03;;;;;;;19.93;13.20;;;;;;;;;;5095240;28;20943;-71
2023/05/04 04:12:30;;;;;;;18.73;12.83;;;;;;;;;;5094901;28;20883;-71
2023/05/04 04:14:58;;;;;;;20.30;13.53;;;;;;;;;;5094857;28;20486;-71
2023/05/04 04:17:25;;;;;;;24.07;14.77;;;;;;;;;;5094868;28;20446;-71
2023/05/04 04:19:53;;;;;;;21.03;13.10;;;;;;;;;;5095027;28;20456;-71
2023/05/04 04:22:20;;;;;;;20.77;11.77;;;;;;;;;;5094280;28;20470;-71
2023/05/04 04:24:47;;;;;;;24.53;12.03;;;;;;;;;;5094822;28;20494;-71
2023/05/04 04:27:14;;;;;;;21.90;12.33;;;;;;;;;;5093926;28;20451;-71
2023/05/04 04:29:41;;;;;;;18.43;12.93;;;;;;;;;;5094851;28;20455;-71
2023/05/04 04:32:10;;;;;;;14.67;9.67;;;;;;;;;;5094877;28;21030;-71
2023/05/04 04:34:37;;;;;;;11.17;9.47;;;;;;;;;;5094513;28;20482;-71
2023/05/04 04:37:04;;;;;;;13.40;9.23;;;;;;;;;;5094723;28;20829;-71
2023/05/04 04:39:32;;;;;;;11.07;8.40;;;;;;;;;;5094471;28;20498;-72
2023/05/04 04:41:59;;;;;;;17.60;9.00;;;;;;;;;;5094556;28;21796;-72
2023/05/04 04:44:27;;;;;;;10.07;9.00;;;;;;;;;;5094082;28;20940;-72
2023/05/04 04:46:54;;;;;;;8.97;7.70;;;;;;;;;;5094298;28;20471;-72
2023/05/04 04:49:22;;;;;;;12.03;8.90;;;;;;;;;;5094474;28;20512;-72
2023/05/04 04:51:49;;;;;;;8.37;7.40;;;;;;;;;;5094236;28;20461;-72
2023/05/04 04:54:16;;;;;;;10.67;8.50;;;;;;;;;;5093964;28;20825;-72
2023/05/04 04:56:45;;;;;;;11.27;10.13;;;;;;;;;;5094496;28;20454;-74
2023/05/04 04:59:12;;;;;;;10.37;8.07;;;;;;;;;;5094264;28;20944;-73
2023/05/04 05:01:40;;;;;;;9.27;8.20;;;;;;;;;;5094176;28;20450;-73
2023/05/04 05:04:08;;;;;;;11.13;8.30;;;;;;;;;;5093959;28;20450;-73
2023/05/04 05:06:37;;;;;;;10.97;8.30;;;;;;;;;;5093947;28;20450;-72
2023/05/04 05:09:04;;;;;;;8.30;7.40;;;;;;;;;;5093992;28;20454;-72
2023/05/04 05:11:32;;;;;;;9.60;8.07;;;;;;;;;;5093811;28;20458;-72
2023/05/04 05:14:00;;;;;;;9.73;7.93;;;;;;;;;;5093707;28;20466;-72
2023/05/04 05:16:27;;;;;;;8.90;6.93;;;;;;;;;;5093914;28;20838;-72
2023/05/04 05:18:54;;;;;;;7.93;7.13;;;;;;;;;;5094002;28;20454;-73
2023/05/04 05:21:21;;;;;;;8.30;7.50;;;;;;;;;;5093804;28;20466;-73
2023/05/04 05:23:49;;;;;;;10.03;8.57;;;;;;;;;;5093207;28;20481;-73
2023/05/04 05:26:16;;;;;;;8.90;7.83;;;;;;;;;;5093808;28;20451;-73
2023/05/04 05:28:43;;;;;;;7.80;6.70;;;;;;;;;;5093725;28;20461;-73
2023/05/04 05:31:10;;;;;;;8.60;7.10;;;;;;;;;;5093899;28;20455;-73
2023/05/04 05:33:38;;;;;;;9.37;8.27;;;;;;;;;;5093438;28;20498;-73
2023/05/04 05:36:05;;;;;;;9.40;7.93;;;;;;;;;;5093573;28;20600;-73
2023/05/04 05:38:32;;;;;;;7.73;7.03;;;;;;;;;;5093431;28;20482;-73
2023/05/04 05:41:00;;;;;;;9.40;8.43;;;;;;;;;;5093570;28;20454;-73
2023/05/04 05:43:27;;;;;;;10.30;7.33;;;;;;;;;;5093230;28;20481;-73
2023/05/04 05:45:55;;;;;;;8.97;8.10;;;;;;;;;;5093376;28;20461;-73
2023/05/04 05:48:22;;;;;;;10.30;8.20;;;;;;;;;;5093371;28;20451;-73
2023/05/04 05:50:49;;;;;;;9.40;8.40;;;;;;;;;;5093625;28;20447;-73
2023/05/04 05:53:16;;;;;;;8.60;7.80;;;;;;;;;;5093187;28;20475;-73
2023/05/04 05:55:43;;;;;;;9.53;8.70;;;;;;;;;;5093005;28;20494;-73
2023/05/04 05:58:12;;;;;;;9.10;8.20;;;;;;;;;;5093389;28;20455;-73
2023/05/04 06:00:39;;;;;;;8.73;7.60;;;;;;;;;;5093183;28;20450;-73
2023/05/04 06:03:06;;;;;;;11.03;8.40;;;;;;;;;;5093234;28;20477;-73
2023/05/04 06:05:34;;;;;;;11.27;7.90;;;;;;;;;;5092948;28;20455;-73
2023/05/04 06:08:01;;;;;;;9.50;8.70;;;;;;;;;;5093138;28;20544;-73
2023/05/04 06:10:28;;;;;;;9.97;8.03;;;;;;;;;;5093150;28;20462;-73
2023/05/04 06:12:55;;;;;;;9.57;8.57;;;;;;;;;;5093031;28;20475;-73
2023/05/04 06:15:24;;;;;;;9.43;8.63;;;;;;;;;;5092669;28;20482;-73
2023/05/04 06:17:51;;;;;;;10.43;8.80;;;;;;;;;;5093190;28;20462;-73
2023/05/04 06:20:18;;;;;;;9.17;8.40;;;;;;;;;;5093204;28;20446;-73
2023/05/04 06:22:46;;;;;;;8.40;7.70;;;;;;;;;;5092572;28;20473;-73
2023/05/04 06:25:13;;;;;;;12.50;8.30;;;;;;;;;;5092835;28;20450;-73
2023/05/04 06:27:40;;;;;;;9.40;8.50;;;;;;;;;;5092938;28;20816;-73
2023/05/04 06:30:08;;;;;;;8.40;7.60;;;;;;;;;;5092949;28;20477;-74
2023/05/04 06:32:36;;;;;;;9.20;8.30;;;;;;;;;;5092737;28;20827;-75
2023/05/04 06:35:03;;;;;;;9.80;7.33;;;;;;;;;;5092615;28;20494;-75
2023/05/04 06:37:31;;;;;;;16.40;9.10;;;;;;;;;;5092864;28;20450;-75
2023/05/04 06:39:58;;;;;;;10.10;8.13;;;;;;;;;;5092870;28;20454;-73
2023/05/04 06:42:25;;;;;;;9.20;8.30;;;;;;;;;;5092616;28;20474;-75
2023/05/04 06:44:52;;;;;;;8.10;7.30;;;;;;;;;;5092514;28;20451;-75
2023/05/04 06:47:19;;;;;;;9.67;8.63;;;;;;;;;;5092673;28;20457;-75
2023/05/04 06:49:48;;;;;;;10.33;8.50;;;;;;;;;;5094681;28;20450;-75
2023/05/04 06:52:15;;;;;;;9.00;8.10;;;;;;;;;;5096773;28;20474;-75
2023/05/04 06:54:42;;;;;;;8.67;7.90;;;;;;;;;;5096539;28;20458;-75
2023/05/04 06:57:09;;;;;;;8.53;7.73;;;;;;;;;;5096763;28;20453;-75
2023/05/04 06:59:36;;;;;;;9.27;8.37;;;;;;;;;;5096631;28;20508;-75
2023/05/04 07:02:03;;;;;;;9.37;8.40;;;;;;;;;;5096573;28;20979;-75
2023/05/04 07:04:30;;;;;;;9.93;8.37;;;;;;;;;;5096296;28;20481;-73
2023/05/04 07:06:59;;;;;;;9.10;8.20;;;;;;;;;;5096571;28;20458;-73
2023/05/04 07:09:26;;;;;;;10.13;9.00;;;;;;;;;;5096412;28;20453;-73
2023/05/04 07:11:53;;;;;;;9.67;8.63;;;;;;;;;;5096462;28;20462;-73
2023/05/04 07:14:20;;;;;;;11.80;8.60;;;;;;;;;;5096189;28;20450;-73
2023/05/04 07:16:47;;;;;;;9.23;7.97;;;;;;;;;;5096361;28;20490;-73
2023/05/04 07:19:14;;;;;;;8.40;7.57;;;;;;;;;;5096350;28;20500;-73
2023/05/04 07:21:42;;;;;;;10.20;9.20;;;;;;;;;;5095849;28;20958;-74
2023/05/04 07:24:10;;;;;;;8.63;7.80;;;;;;;;;;5096010;28;20450;-74
2023/05/04 07:26:37;;;;;;;13.83;9.50;;;;;;;;;;5096454;28;20927;-73
2023/05/04 07:29:04;;;;;;;9.77;8.70;;;;;;;;;;5096256;28;20473;-73
2023/05/04 07:31:32;;;;;;;11.73;10.53;;;;;;;;;;5096227;28;20466;-73
2023/05/04 07:33:59;;;;;;;9.33;8.30;;;;;;;;;;5096048;28;20596;-73
2023/05/04 07:36:26;;;;;;;10.90;9.37;;;;;;;;;;5095976;28;20493;-75
2023/05/04 07:38:54;;;;;;;10.37;8.83;;;;;;;;;;5096095;28;20890;-76
2023/05/04 07:41:22;;;;;;;11.37;9.60;;;;;;;;;;5096014;28;20475;-75
2023/05/04 07:43:49;;;;;;;11.40;8.60;;;;;;;;;;5095655;28;20482;-75
2023/05/04 07:46:16;;;;;;;12.60;9.40;;;;;;;;;;5095717;28;20458;-75
2023/05/04 07:48:43;;;;;;;11.77;10.33;;;;;;;;;;5095929;28;20520;-75
2023/05/04 07:51:13;;;;;;;13.73;10.93;;;;;;;;;;5095668;28;20458;-75
2023/05/04 07:53:41;;;;;;;11.43;10.17;;;;;;;;;;5095546;28;20505;-75
2023/05/04 07:56:10;;;;;;;11.17;9.50;;;;;;;;;;5095590;28;20482;-75
2023/05/04 07:58:38;;;;;;;10.63;9.40;;;;;;;;;;5095678;28;20454;-75
2023/05/04 08:01:05;;;;;;;14.07;10.67;;;;;;;;;;5094278;28;20451;-75
2023/05/04 08:03:33;;;;;;;15.63;10.87;;;;;;;;;;5095277;28;20481;-75
2023/05/04 08:06:00;;;;;;;13.80;11.50;;;;;;;;;;5095500;28;20448;-75
2023/05/04 08:08:27;;;;;;;14.43;12.00;;;;;;;;;;5095327;28;20458;-75
2023/05/04 08:10:54;;;;;;;12.07;10.83;;;;;;;;;;5095526;28;20461;-75
2023/05/04 08:13:21;;;;;;;12.93;11.20;;;;;;;;;;5095530;28;20475;-75
2023/05/04 08:15:50;;;;;;;14.37;12.77;;;;;;;;;;5095341;28;20490;-75
2023/05/04 08:18:17;;;;;;;13.60;11.97;;;;;;;;;;5094921;28;20462;-75
2023/05/04 08:20:44;;;;;;;14.20;12.60;;;;;;;;;;5094507;28;20943;-75
2023/05/04 08:23:11;;;;;;;18.53;12.90;;;;;;;;;;5094245;28;20493;-75
2023/05/04 08:25:38;;;;;;;14.97;13.40;;;;;;;;;;5093453;28;20453;-75
2023/05/04 08:28:05;;;;;;;16.30;13.10;;;;;;;;;;5095126;28;20458;-75
2023/05/04 08:30:32;;;;;;;14.93;12.80;;;;;;;;;;5094972;28;20450;-75
2023/05/04 08:33:01;;;;;;;15.87;12.50;;;;;;;;;;5095143;28;21019;-73
2023/05/04 08:35:28;;;;;;;12.33;10.23;;;;;;;;;;5094801;28;20490;-73
2023/05/04 08:37:55;;;;;;;15.10;11.73;;;;;;;;;;5095233;28;20455;-75
2023/05/04 08:40:23;;;;;;;13.33;11.87;;;;;;;;;;5094756;28;20458;-75
2023/05/04 08:42:51;;;;;;;15.23;11.67;;;;;;;;;;5094757;28;20502;-75
2023/05/04 08:45:18;;;;;;;13.10;10.90;;;;;;;;;;5094334;28;20466;-75
2023/05/04 08:47:45;;;;;;;13.10;11.80;;;;;;;;;;5094927;28;20944;-75
2023/05/04 08:50:14;;;;;;;17.13;13.30;;;;;;;;;;5094618;28;20454;-75
2023/05/04 08:52:45;;;;;;;16.57;11.23;;;;;;;;;;5094506;28;20478;-75
2023/05/04 08:55:12;;;;;;;12.00;10.03;;;;;;;;;;5094356;28;20482;-75
2023/05/04 08:57:40;;;;;;;14.70;10.20;;;;;;;;;;5094234;28;20454;-75
2023/05/04 09:00:08;;;;;;;14.83;11.73;;;;;;;;;;5094578;28;20462;-75
2023/05/04 09:02:36;;;;;;;14.43;11.77;;;;;;;;;;5094131;28;20526;-75
2023/05/04 09:05:03;;;;;;;12.23;10.20;;;;;;;;;;5094308;28;20457;-75
2023/05/04 09:07:32;;;;;;;12.77;10.50;;;;;;;;;;5094493;28;20447;-76
2023/05/04 09:10:00;;;;;;;12.90;9.50;;;;;;;;;;5094625;28;20476;-76
2023/05/04 09:12:27;;;;;;;10.30;9.30;;;;;;;;;;5093606;28;20506;-75
2023/05/04 09:14:54;;;;;;;10.80;9.70;;;;;;;;;;5094104;28;20867;-75
2023/05/04 09:17:24;;;;;;;29.80;11.83;;;;;;;;;;5094057;28;20493;-75
2023/05/04 09:19:57;;;;;;;10.87;9.43;;;;;;;;;;5094111;28;20545;-75
2023/05/04 09:22:24;;;;;;;11.63;10.10;;;;;;;;;;5093723;28;20467;-76
2023/05/04 09:24:53;;;;;;;12.97;9.30;;;;;;;;;;5093775;28;20454;-75
2023/05/04 09:27:21;;;;;;;9.03;8.20;;;;;;;;;;5093430;28;20524;-76
2023/05/04 09:29:53;;;;;;;9.13;8.27;;;;;;;;;;5093910;28;20451;-75
2023/05/04 09:32:20;;;;;;;13.73;9.33;;;;;;;;;;5093518;28;20879;-75
2023/05/04 09:34:49;;;;;;;8.20;7.50;;;;;;;;;;5093273;28;20458;-75
2023/05/04 09:37:17;;;;;;;10.60;8.10;;;;;;;;;;5093467;28;21037;-75
2023/05/04 09:39:55;;;;;;;8.20;7.37;;;;;;;;;;5093641;28;20548;-75
2023/05/04 09:42:23;;;;;;;14.57;8.20;;;;;;;;;;5093384;28;20918;-75
2023/05/04 09:45:03;;;;;;;9.63;8.00;;;;;;;;;;5093176;28;20457;-75
2023/05/04 09:47:34;;;;;;;10.87;7.57;;;;;;;;;;5093302;28;20443;-75
2023/05/04 09:50:11;;;;;;;12.13;8.17;;;;;;;;;;5093494;28;20821;-75
2023/05/04 09:52:39;;;;;;;9.87;7.10;;;;;;;;;;5093394;28;20504;-75
2023/05/04 09:55:11;;;;;;;7.90;7.10;;;;;;;;;;5093357;28;20902;-76
2023/05/04 09:57:39;;;;;;;13.50;7.57;;;;;;;;;;5093420;28;20478;-75
2023/05/04 10:00:07;;;;;;;7.33;6.23;;;;;;;;;;5093500;28;20446;-75
2023/05/04 10:02:34;;;;;;;8.43;7.10;;;;;;;;;;5093304;28;20470;-76
2023/05/04 10:05:02;;;;;;;10.50;6.93;;;;;;;;;;5093199;28;20497;-75
2023/05/04 10:07:30;;;;;;;9.00;8.03;;;;;;;;;;5093111;28;20446;-75
2023/05/04 10:09:59;;;;;;;10.53;7.87;;;;;;;;;;5093263;28;20470;-76
2023/05/04 10:12:27;;;;;;;10.27;7.73;;;;;;;;;;5093031;28;20505;-75
2023/05/04 10:14:54;;;;;;;7.60;6.80;;;;;;;;;;5092893;28;20461;-75
2023/05/04 10:17:26;;;;;;;9.37;6.53;;;;;;;;;;5093003;28;21006;-75
2023/05/04 10:19:59;;;;;;;8.47;7.77;;;;;;;;;;5093194;28;20458;-75
2023/05/04 10:22:33;;;;;;;7.83;6.70;;;;;;;;;;5092569;28;20477;-76
2023/05/04 10:25:23;;;;;;;6.63;6.03;;;;;;;;;;5092175;28;20457;-75
2023/05/04 10:28:01;;;;;;;8.70;6.60;;;;;;;;;;5093075;28;20504;-76
2023/05/04 10:30:29;;;;;;;11.33;7.70;;;;;;;;;;5092907;28;20866;-76
2023/05/04 10:32:56;;;;;;;7.80;7.07;;;;;;;;;;5092946;28;20524;-75
2023/05/04 10:35:24;;;;;;;7.53;6.80;;;;;;;;;;5093131;28;20447;-75
2023/05/04 10:37:53;;;;;;;7.50;6.70;;;;;;;;;;5093068;28;20994;-75
2023/05/04 10:40:21;;;;;;;7.83;7.13;;;;;;;;;;5093095;28;20459;-75
2023/05/04 10:42:48;;;;;;;8.23;6.73;;;;;;;;;;5093035;28;20466;-75
2023/05/04 10:45:17;;;;;;;7.90;7.10;;;;;;;;;;5092486;28;20463;-75
2023/05/04 10:47:44;;;;;;;8.77;6.60;;;;;;;;;;5093140;28;20817;-75
2023/05/04 10:50:13;;;;;;;8.90;7.27;;;;;;;;;;5092940;28;20457;-75
2023/05/04 10:52:47;;;;;;;5.67;5.17;;;;;;;;;;5092671;28;20979;-75
2023/05/04 10:55:14;;;;;;;8.40;6.90;;;;;;;;;;5092564;28;20446;-76
2023/05/04 10:57:49;;;;;;;7.10;6.40;;;;;;;;;;5092685;28;20483;-76
2023/05/04 11:00:18;;;;;;;6.80;6.13;;;;;;;;;;5092818;28;20516;-76
2023/05/04 11:02:46;;;;;;;13.40;7.40;;;;;;;;;;5092617;28;20467;-76
2023/05/04 11:05:17;;;;;;;8.80;6.40;;;;;;;;;;5092466;28;20453;-76
2023/05/04 11:07:44;;;;;;;8.83;7.63;;;;;;;;;;5092546;28;20549;-75
2023/05/04 11:10:21;;;;;;;10.47;6.70;;;;;;;;;;5092622;28;20451;-75
2023/05/04 11:12:48;;;;;;;7.37;6.70;;;;;;;;;;5092682;28;20477;-76
2023/05/04 11:15:15;;;;;;;8.73;7.53;;;;;;;;;;5092335;28;20500;-75
2023/05/04 11:17:47;;;;;;;9.63;7.00;;;;;;;;;;5092543;28;20494;-75
2023/05/04 11:20:20;;;;;;;10.70;8.10;;;;;;;;;;5092459;28;20459;-75
2023/05/04 11:22:48;;;;;;;8.07;7.23;;;;;;;;;;5091978;28;20494;-75
2023/05/04 11:25:16;;;;;;;7.67;6.97;;;;;;;;;;5092322;28;20944;-76
2023/05/04 11:27:43;;;;;;;7.30;6.60;;;;;;;;;;5092486;28;20489;-75
2023/05/04 11:30:11;;;;;;;7.60;6.80;;;;;;;;;;5092483;28;20940;-76
2023/05/04 11:32:39;;;;;;;8.83;7.67;;;;;;;;;;5092435;28;20473;-75
2023/05/04 11:35:10;;;;;;;9.90;7.27;;;;;;;;;;5092992;28;20890;-75
2023/05/04 11:37:41;;;;;;;7.83;6.23;;;;;;;;;;5096145;28;20559;-75
2023/05/04 11:40:12;;;;;;;9.40;8.40;;;;;;;;;;5095891;28;20452;-76
2023/05/04 11:42:40;;;;;;;7.70;6.87;;;;;;;;;;5095879;28;20556;-75
2023/05/04 11:45:08;;;;;;;7.17;6.47;;;;;;;;;;5095609;28;20463;-76
2023/05/04 11:47:36;;;;;;;8.40;7.60;;;;;;;;;;5095716;28;20948;-76
2023/05/04 11:50:03;;;;;;;7.30;6.60;;;;;;;;;;5095915;28;20458;-75
2023/05/04 11:52:35;;;;;;;8.60;5.77;;;;;;;;;;5095494;28;20474;-76
2023/05/04 11:55:02;;;;;;;7.43;6.73;;;;;;;;;;5095467;28;20461;-76
2023/05/04 11:57:30;;;;;;;7.50;5.63;;;;;;;;;;5095526;28;20595;-76
2023/05/04 11:59:57;;;;;;;6.60;5.80;;;;;;;;;;5095579;28;20451;-75
2023/05/04 12:02:25;;;;;;;11.80;7.20;;;;;;;;;;5095326;28;20478;-76
2023/05/04 12:04:53;;;;;;;7.70;5.73;;;;;;;;;;5095389;28;20451;-76
2023/05/04 12:07:20;;;;;;;7.90;6.27;;;;;;;;;;5095442;28;20450;-76
2023/05/04 12:09:49;;;;;;;12.90;7.67;;;;;;;;;;5095365;28;20462;-76
2023/05/04 12:12:19;;;;;;;6.20;5.57;;;;;;;;;;5095257;28;20474;-76
2023/05/04 12:14:49;;;;;;;7.37;6.60;;;;;;;;;;5095268;28;20459;-76
2023/05/04 12:17:16;;;;;;;7.70;6.73;;;;;;;;;;5095121;28;20486;-75
2023/05/04 12:19:50;;;;;;;9.30;7.60;;;;;;;;;;5095355;28;20454;-76
2023/05/04 12:22:18;;;;;;;7.83;6.97;;;;;;;;;;5094673;28;20477;-76
2023/05/04 12:24:45;;;;;;;7.10;6.10;;;;;;;;;;5094956;28;20478;-76
2023/05/04 12:27:16;;;;;;;8.17;6.83;;;;;;;;;;5095152;28;20450;-76
2023/05/04 12:29:43;;;;;;;7.17;6.47;;;;;;;;;;5094901;28;20458;-75
2023/05/04 12:32:10;;;;;;;9.47;7.70;;;;;;;;;;5094798;28;20475;-76
2023/05/04 12:34:38;;;;;;;9.43;7.17;;;;;;;;;;5094657;28;20944;-75
2023/05/04 12:37:05;;;;;;;8.10;6.97;;;;;;;;;;5094872;28;20581;-76
2023/05/04 12:39:33;;;;;;;10.40;6.67;;;;;;;;;;5094643;28;20967;-75
2023/05/04 12:42:00;;;;;;;8.27;7.33;;;;;;;;;;5094769;28;20478;-76
2023/05/04 12:44:28;;;;;;;8.67;6.70;;;;;;;;;;5094423;28;20450;-76
2023/05/04 12:46:55;;;;;;;10.40;6.57;;;;;;;;;;5093935;28;20459;-73
2023/05/04 12:49:23;;;;;;;6.23;5.63;;;;;;;;;;5094573;28;20455;-73
2023/05/04 12:51:50;;;;;;;9.17;6.73;;;;;;;;;;5094738;28;20451;-73
2023/05/04 12:54:17;;;;;;;9.00;6.37;;;;;;;;;;5094230;28;20508;-73
2023/05/04 12:56:45;;;;;;;7.33;6.10;;;;;;;;;;5094478;28;20478;-73
2023/05/04 12:59:12;;;;;;;7.33;6.40;;;;;;;;;;5094371;28;20462;-73
2023/05/04 13:01:41;;;;;;;13.70;8.00;;;;;;;;;;5094554;28;20459;-73
2023/05/04 13:04:08;;;;;;;9.53;6.10;;;;;;;;;;5094241;28;20482;-75
2023/05/04 13:06:35;;;;;;;8.53;6.50;;;;;;;;;;5094125;28;20447;-75
2023/05/04 13:09:04;;;;;;;12.73;7.70;;;;;;;;;;5094246;28;20462;-76
2023/05/04 13:11:31;;;;;;;7.53;5.90;;;;;;;;;;5094130;28;20501;-73
2023/05/04 13:13:58;;;;;;;11.20;6.00;;;;;;;;;;5093907;28;21008;-73
2023/05/04 13:16:26;;;;;;;7.97;6.83;;;;;;;;;;5094553;28;20784;-73
2023/05/04 13:18:55;;;;;;;6.53;5.60;;;;;;;;;;5094143;28;20570;-73
2023/05/04 13:21:22;;;;;;;8.53;6.33;;;;;;;;;;5093986;28;20450;-73
2023/05/04 13:23:49;;;;;;;6.60;5.30;;;;;;;;;;5093284;28;20496;-72
2023/05/04 13:26:16;;;;;;;7.70;5.50;;;;;;;;;;5094098;28;20486;-73
2023/05/04 13:28:43;;;;;;;7.53;6.73;;;;;;;;;;5093871;28;20454;-73
2023/05/04 13:31:10;;;;;;;7.20;6.50;;;;;;;;;;5093995;28;20450;-73
2023/05/04 13:33:38;;;;;;;6.63;5.93;;;;;;;;;;5093380;28;20477;-73
2023/05/04 13:36:07;;;;;;;22.67;18.67;;;;;;;;;;5093990;28;20481;-73
2023/05/04 13:38:34;;;;;;;8.93;7.37;;;;;;;;;;5093617;28;20486;-73
2023/05/04 13:41:01;;;;;;;10.80;6.70;;;;;;;;;;5093666;28;20458;-73
2023/05/04 13:43:28;;;;;;;94.80;66.87;;;;;;;;;;5093540;28;20478;-73
2023/05/04 13:45:56;;;;;;;167.50;111.83;;;;;;;;;;5093730;28;20462;-74
2023/05/04 13:48:25;;;;;;;21.87;17.70;;;;;;;;;;5093743;28;20808;-73
2023/05/04 13:50:52;;;;;;;24.40;19.87;;;;;;;;;;5093841;28;20446;-73
2023/05/04 13:53:20;;;;;;;26.43;7.40;;;;;;;;;;5093445;28;20515;-73
2023/05/04 13:55:48;;;;;;;11.53;6.20;;;;;;;;;;5093426;28;20454;-73
2023/05/04 13:58:15;;;;;;;6.03;4.70;;;;;;;;;;5093300;28;20490;-73
2023/05/04 14:00:42;;;;;;;8.87;5.47;;;;;;;;;;5093559;28;20446;-73
2023/05/04 14:03:09;;;;;;;5.47;4.70;;;;;;;;;;5093397;28;20475;-73
2023/05/04 14:05:36;;;;;;;7.20;4.87;;;;;;;;;;5093154;28;20488;-73
2023/05/04 14:08:03;;;;;;;9.73;4.40;;;;;;;;;;5093500;28;20450;-73
2023/05/04 14:10:31;;;;;;;6.97;4.43;;;;;;;;;;5093418;28;20454;-73
2023/05/04 14:12:58;;;;;;;6.67;4.60;;;;;;;;;;5093405;28;20474;-73
2023/05/04 14:15:26;;;;;;;7.30;4.10;;;;;;;;;;5093150;28;20458;-73
2023/05/04 14:17:53;;;;;;;6.97;4.40;;;;;;;;;;5093276;28;20572;-73
2023/05/04 14:20:20;;;;;;;6.10;3.77;;;;;;;;;;5093141;28;20455;-73
2023/05/04 14:22:47;;;;;;;5.17;4.50;;;;;;;;;;5093016;28;20471;-73
2023/05/04 14:25:14;;;;;;;6.87;5.53;;;;;;;;;;5093073;28;20451;-73
2023/05/04 14:27:43;;;;;;;6.50;4.83;;;;;;;;;;5093447;28;20439;-74
2023/05/04 14:30:11;;;;;;;8.70;6.70;;;;;;;;;;5093190;28;20446;-74
2023/05/04 14:32:38;;;;;;;14.57;6.43;;;;;;;;;;5092955;28;20543;-74